Time;durP1;ratioP1;P1;durP2;ratioP2;P2;SDS_P1;SDS_P2;PMS_P1;PMS_P2;Temp;Humidity;BMP_temperature;BMP_pressure;BME280_temperature;BME280_humidity;BME280_pressure;Samples;Min_cycle;Max_cycle;Signal;HPM_P1;HPM_P2
2024/04/24 00:00:26;;;;;;;14.13;9.70;;;;;;;1.85;100.00;95646.75;1095315;27;20013;-71
2024/04/24 00:00:56;;;;;;;14.52;9.38;;;;;;;1.88;100.00;95659.25;1096041;26;19998;-71
2024/04/24 00:01:27;;;;;;;13.77;9.23;;;;;;;1.88;100.00;95661.06;1103435;26;20001;-71
2024/04/24 00:01:57;;;;;;;13.93;9.00;;;;;;;1.85;100.00;95651.13;1103588;26;19996;-71
2024/04/24 00:02:28;;;;;;;15.15;9.63;;;;;;;1.87;100.00;95656.88;1110706;26;19996;-71
2024/04/24 00:03:02;;;;;;;13.27;9.00;;;;;;;1.87;100.00;95655.06;1110442;26;20077;-70
2024/04/24 00:03:32;;;;;;;12.73;8.82;;;;;;;1.86;100.00;95652.72;1111589;26;19996;-70
2024/04/24 00:04:03;;;;;;;17.15;8.93;;;;;;;1.89;100.00;95657.47;1102232;26;20259;-71
2024/04/24 00:04:33;;;;;;;13.60;9.02;;;;;;;1.94;100.00;95659.41;1095712;26;20366;-71
2024/04/24 00:05:04;;;;;;;14.18;9.15;;;;;;;1.94;100.00;95656.81;1103365;26;20110;-71
2024/04/24 00:05:34;;;;;;;15.32;8.85;;;;;;;1.93;100.00;95648.28;1103557;26;20013;-71
2024/04/24 00:06:05;;;;;;;17.70;9.48;;;;;;;1.91;100.00;95650.28;1098093;26;20002;-71
2024/04/24 00:06:35;;;;;;;14.35;9.68;;;;;;;1.86;100.00;95642.34;1096302;26;20017;-71
2024/04/24 00:07:06;;;;;;;14.82;9.05;;;;;;;1.87;100.00;95643.94;1096404;27;20014;-71
2024/04/24 00:07:36;;;;;;;14.35;9.15;;;;;;;1.87;100.00;95649.09;1096179;27;20078;-71
2024/04/24 00:08:07;;;;;;;16.88;9.85;;;;;;;1.77;100.00;95643.59;1096267;26;20017;-71
2024/04/24 00:08:37;;;;;;;14.43;9.02;;;;;;;1.80;100.00;95640.59;1096269;27;20008;-71
2024/04/24 00:09:07;;;;;;;15.02;9.82;;;;;;;1.83;100.00;95647.94;1088904;27;19994;-71
2024/04/24 00:09:38;;;;;;;14.85;8.98;;;;;;;1.76;100.00;95629.09;1082193;27;20004;-71
2024/04/24 00:10:08;;;;;;;14.05;10.40;;;;;;;1.79;100.00;95633.84;1088357;27;20473;-70
2024/04/24 00:10:39;;;;;;;15.82;10.07;;;;;;;1.85;100.00;95646.75;1096319;26;20788;-71
2024/04/24 00:11:09;;;;;;;15.95;9.68;;;;;;;1.87;100.00;95639.56;1095824;26;20008;-71
2024/04/24 00:11:40;;;;;;;13.57;9.40;;;;;;;1.79;100.00;95631.28;1089248;27;19998;-71
2024/04/24 00:12:10;;;;;;;13.25;8.88;;;;;;;1.82;100.00;95636.81;1089103;27;20013;-71
2024/04/24 00:12:41;;;;;;;12.38;8.25;;;;;;;1.76;100.00;95631.69;1096123;27;20343;-71
2024/04/24 00:13:11;;;;;;;17.20;10.35;;;;;;;1.84;100.00;95639.19;1088760;27;20496;-71
2024/04/24 00:13:41;;;;;;;16.83;9.05;;;;;;;1.81;100.00;95637.00;1089231;27;20358;-71
2024/04/24 00:14:12;;;;;;;13.50;9.30;;;;;;;1.81;100.00;95635.25;1089229;27;20347;-71
2024/04/24 00:14:42;;;;;;;15.70;9.57;;;;;;;1.83;100.00;95640.19;1095925;26;20357;-71
2024/04/24 00:15:13;;;;;;;13.10;8.70;;;;;;;1.76;100.00;95631.69;1110531;26;20000;-71
2024/04/24 00:15:43;;;;;;;16.02;9.70;;;;;;;1.79;100.00;95636.44;1103327;26;20012;-71
2024/04/24 00:16:14;;;;;;;13.23;9.10;;;;;;;1.82;100.00;95642.00;1088977;27;20012;-71
2024/04/24 00:16:44;;;;;;;14.98;9.75;;;;;;;1.82;100.00;95641.19;1082200;27;19999;-71
2024/04/24 00:17:15;;;;;;;14.25;9.63;;;;;;;1.81;100.00;95644.78;1082151;27;20454;-71
2024/04/24 00:17:45;;;;;;;14.25;9.93;;;;;;;1.79;100.00;95637.22;1082236;27;20565;-70
2024/04/24 00:18:15;;;;;;;13.70;9.30;;;;;;;1.80;100.00;95638.03;1089126;26;20425;-71
2024/04/24 00:18:46;;;;;;;13.88;9.65;;;;;;;1.79;100.00;95647.59;1096100;27;20057;-71
2024/04/24 00:19:16;;;;;;;15.13;9.60;;;;;;;1.79;100.00;95644.22;1088908;27;19998;-71
2024/04/24 00:19:47;;;;;;;16.08;10.15;;;;;;;1.79;100.00;95636.44;1088821;27;20009;-71
2024/04/24 00:20:17;;;;;;;17.20;9.38;;;;;;;1.81;100.00;95640.41;1095437;26;19997;-71
2024/04/24 00:20:48;;;;;;;14.30;9.45;;;;;;;1.86;100.00;95640.56;1096296;27;20369;-71
2024/04/24 00:21:18;;;;;;;12.05;8.45;;;;;;;1.85;100.00;95643.38;1095897;26;19997;-71
2024/04/24 00:21:48;;;;;;;14.50;9.50;;;;;;;1.84;100.00;95639.19;1103403;26;20935;-71
2024/04/24 00:22:19;;;;;;;14.45;9.02;;;;;;;1.87;100.00;95636.19;1110406;26;20107;-71
2024/04/24 00:22:50;;;;;;;13.00;9.13;;;;;;;1.89;100.00;95639.34;1110480;26;19996;-72
2024/04/24 00:23:20;;;;;;;16.45;9.25;;;;;;;1.82;100.00;95636.03;1110151;26;20011;-71
2024/04/24 00:23:51;;;;;;;14.57;9.35;;;;;;;1.86;100.00;95643.16;1103124;26;20633;-71
2024/04/24 00:24:21;;;;;;;16.33;9.15;;;;;;;1.84;100.00;95644.34;1103298;26;20173;-71
2024/04/24 00:24:51;;;;;;;14.45;8.98;;;;;;;1.80;100.00;95638.03;1095981;27;19997;-71
2024/04/24 00:25:22;;;;;;;14.55;9.60;;;;;;;1.82;100.00;95638.63;1096158;26;20005;-71
2024/04/24 00:25:55;;;;;;;14.98;10.43;;;;;;;1.79;100.00;95634.66;1110467;26;20000;-71
2024/04/24 00:26:26;;;;;;;13.85;9.30;;;;;;;1.83;100.00;95647.94;1096622;26;20420;-71
2024/04/24 00:26:56;;;;;;;16.08;9.50;;;;;;;1.84;100.00;95639.97;1095892;27;20225;-71
2024/04/24 00:27:27;;;;;;;16.83;9.40;;;;;;;1.82;100.00;95636.03;1096170;27;20799;-70
2024/04/24 00:27:58;;;;;;;13.63;9.18;;;;;;;1.84;100.00;95644.34;1082158;27;20444;-71
2024/04/24 00:28:28;;;;;;;16.05;9.73;;;;;;;1.86;100.00;95642.34;1088983;27;20234;-71
2024/04/24 00:28:59;;;;;;;15.25;9.55;;;;;;;1.82;100.00;95636.03;1096259;26;20008;-71
2024/04/24 00:29:29;;;;;;;14.07;9.40;;;;;;;1.85;100.00;95640.78;1096400;26;19994;-71
2024/04/24 00:29:59;;;;;;;14.27;9.73;;;;;;;1.84;100.00;95634.00;1100947;26;19997;-70
2024/04/24 00:30:30;;;;;;;13.40;9.07;;;;;;;1.86;100.00;95637.97;1088148;27;20009;-71
2024/04/24 00:31:00;;;;;;;11.95;8.68;;;;;;;1.84;100.00;95639.19;1095949;27;19994;-71
2024/04/24 00:31:31;;;;;;;15.93;10.32;;;;;;;1.85;100.00;95640.78;1095998;26;20076;-71
2024/04/24 00:32:05;;;;;;;14.13;9.15;;;;;;;1.81;100.00;95634.41;1096357;26;20357;-70
2024/04/24 00:32:35;;;;;;;13.15;9.45;;;;;;;1.85;100.00;95641.56;1111246;26;20062;-71
2024/04/24 00:33:05;;;;;;;15.18;9.45;;;;;;;1.84;100.00;95639.19;1110195;26;20377;-71
2024/04/24 00:33:36;;;;;;;18.48;9.98;;;;;;;1.79;100.00;95626.09;1103040;26;20009;-71
2024/04/24 00:34:07;;;;;;;15.82;9.50;;;;;;;1.86;100.00;95637.19;1096014;26;20001;-71
2024/04/24 00:34:37;;;;;;;13.52;8.85;;;;;;;1.86;100.00;95637.97;1110225;26;20015;-72
2024/04/24 00:35:08;;;;;;;14.93;9.50;;;;;;;1.81;100.00;95629.25;1102976;26;20271;-71
2024/04/24 00:35:38;;;;;;;14.77;9.35;;;;;;;1.84;100.00;95644.34;1088977;27;20010;-71
2024/04/24 00:36:09;;;;;;;16.60;9.45;;;;;;;1.87;100.00;95639.56;1088919;27;20394;-70
2024/04/24 00:36:39;;;;;;;12.90;8.80;;;;;;;1.85;100.00;95638.97;1083214;27;20498;-71
2024/04/24 00:37:10;;;;;;;14.23;9.18;;;;;;;1.93;100.00;95637.13;1089101;27;20010;-70
2024/04/24 00:37:41;;;;;;;18.13;9.85;;;;;;;1.86;100.00;95635.38;1088883;27;20002;-71
2024/04/24 00:38:11;;;;;;;15.18;9.15;;;;;;;1.91;100.00;95639.91;1088913;27;19998;-71
2024/04/24 00:38:41;;;;;;;13.85;8.80;;;;;;;1.87;100.00;95636.97;1087678;27;20006;-71
2024/04/24 00:39:12;;;;;;;13.93;9.23;;;;;;;1.86;100.00;95642.34;1088800;27;20082;-71
2024/04/24 00:39:42;;;;;;;15.95;10.00;;;;;;;1.78;100.00;95633.06;1089234;26;20014;-71
2024/04/24 00:40:13;;;;;;;20.67;9.45;;;;;;;1.87;100.00;95634.38;1109245;26;20075;-71
2024/04/24 00:40:43;;;;;;;16.60;10.13;;;;;;;1.87;100.00;95634.38;1117607;26;20015;-71
2024/04/24 00:41:14;;;;;;;14.25;9.05;;;;;;;1.85;100.00;95638.19;1125197;26;20002;-72
2024/04/24 00:41:44;;;;;;;14.85;9.35;;;;;;;1.83;100.00;95635.81;1124696;26;19998;-71
2024/04/24 00:42:19;;;;;;;15.77;9.60;;;;;;;1.83;100.00;95632.44;1117664;26;20023;-71
2024/04/24 00:42:49;;;;;;;15.13;9.38;;;;;;;1.88;100.00;95632.59;1110282;26;20079;-71
2024/04/24 00:43:19;;;;;;;15.30;8.98;;;;;;;1.87;100.00;95631.78;1110351;26;20334;-71
2024/04/24 00:43:52;;;;;;;16.20;9.52;;;;;;;1.86;100.00;95630.22;1110097;26;20011;-71
2024/04/24 00:44:22;;;;;;;13.57;9.27;;;;;;;1.86;100.00;95635.38;1104185;26;20004;-71
2024/04/24 00:44:53;;;;;;;14.98;9.82;;;;;;;1.80;100.00;95628.47;1117708;26;20225;-71
2024/04/24 00:45:23;;;;;;;12.90;9.50;;;;;;;1.87;100.00;95638.75;1102828;26;20026;-71
2024/04/24 00:45:55;;;;;;;13.57;9.40;;;;;;;1.86;100.00;95632.00;1103076;26;20000;-71
2024/04/24 00:46:26;;;;;;;13.02;8.90;;;;;;;1.80;100.00;95623.28;1096117;27;20097;-72
2024/04/24 00:46:57;;;;;;;14.05;8.80;;;;;;;1.87;100.00;95631.00;1095835;27;20307;-71
2024/04/24 00:47:28;;;;;;;15.45;9.77;;;;;;;1.82;100.00;95630.84;1096084;27;20337;-71
2024/04/24 00:47:58;;;;;;;14.13;8.73;;;;;;;1.80;100.00;95623.28;1089017;27;20784;-71
2024/04/24 00:48:29;;;;;;;16.38;9.40;;;;;;;1.87;100.00;95638.75;1081678;27;19999;-71
2024/04/24 00:49:00;;;;;;;12.95;9.05;;;;;;;1.81;100.00;95635.25;1081802;26;20541;-71
2024/04/24 00:49:30;;;;;;;14.88;9.45;;;;;;;1.83;100.00;95633.22;1103132;26;19997;-71
2024/04/24 00:50:01;;;;;;;15.52;9.50;;;;;;;1.84;100.00;95629.63;1117577;26;20007;-69
2024/04/24 00:50:31;;;;;;;14.02;9.55;;;;;;;1.88;100.00;95632.59;1117565;26;20014;-71
2024/04/24 00:51:02;;;;;;;13.93;9.00;;;;;;;1.91;100.00;95629.56;1110554;26;20348;-71
2024/04/24 00:51:32;;;;;;;14.45;9.52;;;;;;;1.86;100.00;95627.63;1110442;26;20008;-71
2024/04/24 00:52:03;;;;;;;15.25;9.30;;;;;;;1.87;100.00;95623.25;1098612;26;20045;-71
2024/04/24 00:52:33;;;;;;;14.82;9.25;;;;;;;1.84;100.00;95627.03;1095813;27;20002;-71
2024/04/24 00:53:03;;;;;;;15.65;9.90;;;;;;;1.84;100.00;95623.66;1096100;27;20092;-71
2024/04/24 00:53:34;;;;;;;14.10;9.65;;;;;;;1.91;100.00;95631.38;1096088;27;20491;-71
2024/04/24 00:54:05;;;;;;;17.02;9.88;;;;;;;1.89;100.00;95627.22;1088896;27;20002;-71
2024/04/24 00:54:35;;;;;;;15.40;9.70;;;;;;;1.91;100.00;95621.81;1088876;27;19998;-71
2024/04/24 00:55:06;;;;;;;16.27;9.77;;;;;;;1.91;100.00;95629.56;1088982;27;20013;-71
2024/04/24 00:55:36;;;;;;;14.40;9.10;;;;;;;1.88;100.00;95625.63;1095534;27;20010;-70
2024/04/24 00:56:07;;;;;;;16.55;9.18;;;;;;;1.92;100.00;95631.19;1090547;26;20007;-71
2024/04/24 00:56:37;;;;;;;15.45;9.45;;;;;;;1.93;100.00;95627.56;1078460;27;20313;-71
2024/04/24 00:57:07;;;;;;;15.25;9.63;;;;;;;1.93;100.00;95627.56;1094538;26;19999;-71
2024/04/24 00:57:38;;;;;;;12.07;8.73;;;;;;;1.95;100.00;95633.34;1098628;26;19998;-70
2024/04/24 00:58:09;;;;;;;13.88;9.20;;;;;;;1.90;100.00;95628.00;1089081;27;19998;-71
2024/04/24 00:58:39;;;;;;;15.65;8.93;;;;;;;1.86;100.00;95624.25;1095747;27;20345;-71
2024/04/24 00:59:10;;;;;;;15.00;9.20;;;;;;;1.86;100.00;95616.50;1102771;26;20483;-70
2024/04/24 00:59:40;;;;;;;15.98;9.95;;;;;;;1.89;100.00;95622.03;1095876;27;20495;-71
2024/04/24 01:00:11;;;;;;;18.45;10.30;;;;;;;1.71;100.00;95595.31;1102580;26;20007;-71
2024/04/24 01:00:41;;;;;;;14.40;9.55;;;;;;;1.91;100.00;95618.44;1095939;27;20009;-71
2024/04/24 01:01:11;;;;;;;16.05;10.38;;;;;;;1.87;100.00;95615.47;1102972;26;20009;-71
2024/04/24 01:01:42;;;;;;;18.90;9.95;;;;;;;1.89;100.00;95621.25;1103062;26;20000;-72
2024/04/24 01:02:12;;;;;;;14.18;8.98;;;;;;;1.91;100.00;95623.59;1089057;27;20013;-71
2024/04/24 01:02:43;;;;;;;13.80;9.25;;;;;;;1.85;100.00;95620.09;1095835;26;20001;-71
2024/04/24 01:03:13;;;;;;;14.80;9.90;;;;;;;1.86;100.00;95616.50;1095875;27;20012;-71
2024/04/24 01:03:44;;;;;;;15.45;10.00;;;;;;;1.84;100.00;95624.44;1086104;27;19999;-70
2024/04/24 01:04:14;;;;;;;16.52;10.68;;;;;;;1.90;100.00;95620.22;1081584;27;19999;-71
2024/04/24 01:04:44;;;;;;;15.23;9.82;;;;;;;1.89;100.00;95619.44;1095326;27;20021;-71
2024/04/24 01:05:15;;;;;;;15.65;9.80;;;;;;;1.93;100.00;95617.22;1081864;27;20015;-71
2024/04/24 01:05:46;;;;;;;16.27;9.45;;;;;;;1.84;100.00;95619.28;1089045;27;20145;-71
2024/04/24 01:06:16;;;;;;;15.60;9.65;;;;;;;1.88;100.00;95622.25;1095762;26;20024;-71
2024/04/24 01:06:47;;;;;;;14.90;9.52;;;;;;;1.89;100.00;95616.06;1095948;26;20228;-71
2024/04/24 01:07:17;;;;;;;21.70;9.90;;;;;;;1.87;100.00;95612.88;1095650;27;20017;-71
2024/04/24 01:07:48;;;;;;;13.57;9.80;;;;;;;1.86;100.00;95612.09;1083635;27;20009;-71
2024/04/24 01:08:18;;;;;;;14.52;9.65;;;;;;;1.89;100.00;95616.06;1088689;27;20003;-71
2024/04/24 01:08:48;;;;;;;15.20;9.73;;;;;;;1.89;100.00;95621.25;1081879;27;19999;-71
2024/04/24 01:09:19;;;;;;;16.08;9.98;;;;;;;1.89;100.00;95609.09;1088893;26;19998;-71
2024/04/24 01:09:49;;;;;;;15.73;8.82;;;;;;;1.89;100.00;95616.06;1102980;26;20023;-71
2024/04/24 01:10:20;;;;;;;15.38;9.48;;;;;;;1.89;100.00;95610.91;1109458;26;20007;-71
2024/04/24 01:10:57;;;;;;;13.98;9.18;;;;;;;1.96;100.00;95621.19;1117384;26;20007;-71
2024/04/24 01:11:31;;;;;;;13.30;9.38;;;;;;;1.86;100.00;95611.31;1101107;26;20001;-71
2024/04/24 01:12:01;;;;;;;15.20;8.77;;;;;;;1.91;100.00;95618.44;1088847;27;20852;-71
2024/04/24 01:12:31;;;;;;;13.57;9.13;;;;;;;1.91;100.00;95614.06;1091292;27;20225;-71
2024/04/24 01:13:02;;;;;;;14.98;9.63;;;;;;;1.85;100.00;95610.53;1097453;26;19998;-71
2024/04/24 01:13:32;;;;;;;15.68;9.57;;;;;;;1.90;100.00;95622.81;1107763;26;20033;-71
2024/04/24 01:14:03;;;;;;;15.02;9.23;;;;;;;1.88;100.00;95610.09;1117543;26;20000;-71
2024/04/24 01:14:33;;;;;;;14.07;9.73;;;;;;;1.85;100.00;95610.53;1101548;26;20004;-71
2024/04/24 01:15:04;;;;;;;16.30;10.32;;;;;;;1.86;100.00;95611.31;1082048;27;20009;-71
2024/04/24 01:15:34;;;;;;;14.63;9.48;;;;;;;1.83;100.00;95607.34;1088985;27;20002;-71
2024/04/24 01:16:13;;;;;;;16.10;10.00;;;;;;;1.87;100.00;95611.09;1081921;27;19995;-71
2024/04/24 01:16:44;;;;;;;17.83;9.70;;;;;;;1.89;100.00;95610.91;1084207;27;20006;-71
2024/04/24 01:17:15;;;;;;;16.23;9.73;;;;;;;1.91;100.00;95608.09;1091120;27;20254;-71
2024/04/24 01:17:47;;;;;;;20.90;10.60;;;;;;;1.86;100.00;95606.16;1100310;26;20005;-71
2024/04/24 01:18:18;;;;;;;14.18;9.65;;;;;;;1.78;100.00;95591.69;1095686;26;20237;-71
2024/04/24 01:18:57;;;;;;;15.57;10.13;;;;;;;1.87;100.00;95605.13;1088915;27;20267;-71
2024/04/24 01:19:46;;;;;;;14.90;9.70;;;;;;;1.85;100.00;95597.59;1088918;27;20030;-71
2024/04/24 01:20:19;;;;;;;16.17;9.57;;;;;;;1.88;100.00;95602.34;1081192;27;20720;-71
2024/04/24 01:20:50;;;;;;;15.77;9.73;;;;;;;1.84;100.00;95592.63;1088866;27;20221;-71
2024/04/24 01:21:22;;;;;;;13.40;8.88;;;;;;;1.84;100.00;95590.81;1088615;27;20222;-71
2024/04/24 01:22:31;;;;;;;15.23;10.18;;;;;;;1.87;100.00;95603.34;1095788;27;19998;-71
2024/04/24 01:23:19;;;;;;;18.30;9.82;;;;;;;1.91;100.00;95603.69;1090821;27;20278;-71
2024/04/24 01:24:04;;;;;;;14.85;9.13;;;;;;;1.89;100.00;95601.34;1112105;26;20269;-71
2024/04/24 01:24:39;;;;;;;16.63;9.43;;;;;;;1.81;100.00;95591.25;1110509;26;20269;-71
2024/04/24 01:25:23;;;;;;;16.92;10.05;;;;;;;1.86;100.00;95595.78;1095766;26;20277;-71
2024/04/24 01:26:03;;;;;;;15.68;9.60;;;;;;;1.89;100.00;95600.56;1095747;27;20611;-70
2024/04/24 01:26:45;;;;;;;16.05;9.48;;;;;;;1.88;100.00;95599.75;1095732;26;21034;-71
2024/04/24 01:27:16;;;;;;;15.93;10.13;;;;;;;1.90;100.00;95594.38;1102950;26;20308;-71
2024/04/24 01:27:46;;;;;;;13.48;8.82;;;;;;;1.87;100.00;95597.38;1102982;26;20346;-71
2024/04/24 01:28:17;;;;;;;14.38;9.68;;;;;;;1.85;100.00;95594.22;1095598;26;20009;-71
2024/04/24 01:28:47;;;;;;;17.50;9.52;;;;;;;1.80;100.00;95581.13;1096060;26;20030;-71
2024/04/24 01:29:17;;;;;;;15.00;9.68;;;;;;;1.85;100.00;95594.22;1095818;26;20388;-71
2024/04/24 01:29:48;;;;;;;14.13;9.45;;;;;;;1.84;100.00;95593.41;1094785;26;20002;-70
2024/04/24 01:30:18;;;;;;;16.58;10.15;;;;;;;1.85;100.00;95592.41;1093832;26;20009;-71
2024/04/24 01:30:49;;;;;;;16.42;9.80;;;;;;;1.85;100.00;95589.03;1096153;26;20001;-71
2024/04/24 01:31:19;;;;;;;17.75;9.55;;;;;;;1.83;100.00;95589.25;1110345;26;20007;-71
2024/04/24 01:31:50;;;;;;;17.77;9.23;;;;;;;1.83;100.00;95591.81;1102797;26;20393;-71
2024/04/24 01:32:20;;;;;;;13.25;9.75;;;;;;;1.84;100.00;95593.41;1109941;26;20011;-71
2024/04/24 01:32:51;;;;;;;17.45;10.52;;;;;;;1.82;100.00;95587.66;1110082;26;20039;-71
2024/04/24 01:33:21;;;;;;;14.02;9.95;;;;;;;1.83;100.00;95585.88;1102807;26;20005;-71
2024/04/24 01:33:52;;;;;;;17.35;10.35;;;;;;;1.84;100.00;95584.84;1102935;26;20008;-71
2024/04/24 01:34:22;;;;;;;14.18;9.85;;;;;;;1.78;100.00;95577.97;1095822;26;20113;-71
2024/04/24 01:34:53;;;;;;;19.02;10.07;;;;;;;1.86;100.00;95583.66;1081840;27;20003;-70
2024/04/24 01:35:23;;;;;;;14.73;9.50;;;;;;;1.89;100.00;95585.03;1081983;27;20003;-71
2024/04/24 01:35:53;;;;;;;16.27;10.27;;;;;;;1.85;100.00;95584.66;1095710;27;20044;-71
2024/04/24 01:36:24;;;;;;;20.58;10.15;;;;;;;1.87;100.00;95584.44;1095893;26;20080;-71
2024/04/24 01:36:54;;;;;;;13.68;9.07;;;;;;;1.84;100.00;95585.63;1109889;26;20016;-71
2024/04/24 01:37:25;;;;;;;15.88;9.95;;;;;;;1.84;100.00;95588.22;1110315;26;20006;-71
2024/04/24 01:37:55;;;;;;;16.45;10.68;;;;;;;1.82;100.00;95579.91;1117352;26;19999;-72
2024/04/24 01:38:26;;;;;;;15.65;9.90;;;;;;;1.83;100.00;95591.81;1109697;26;19996;-70
2024/04/24 01:38:56;;;;;;;14.10;9.63;;;;;;;1.85;100.00;95583.88;1110131;26;20015;-71
2024/04/24 01:39:26;;;;;;;15.00;10.40;;;;;;;1.85;100.00;95579.47;1096088;26;20524;-71
2024/04/24 01:39:57;;;;;;;16.85;10.63;;;;;;;1.90;100.00;95578.84;1095835;26;20458;-71
2024/04/24 01:40:27;;;;;;;15.70;10.40;;;;;;;1.86;100.00;95573.31;1101773;26;20485;-71
2024/04/24 01:40:58;;;;;;;14.25;10.02;;;;;;;1.91;100.00;95585.59;1082211;27;20074;-71
2024/04/24 01:41:28;;;;;;;14.80;10.57;;;;;;;1.87;100.00;95577.47;1095994;26;20005;-71
2024/04/24 01:41:59;;;;;;;15.23;9.65;;;;;;;1.85;100.00;95583.88;1092910;26;19998;-70
2024/04/24 01:42:29;;;;;;;16.35;10.77;;;;;;;1.84;100.00;95587.44;1096079;26;20009;-71
2024/04/24 01:42:59;;;;;;;14.60;9.82;;;;;;;1.83;100.00;95589.25;1102612;26;19993;-71
2024/04/24 01:43:30;;;;;;;17.45;10.55;;;;;;;1.82;100.00;95586.88;1103007;26;20008;-71
2024/04/24 01:44:00;;;;;;;17.88;10.23;;;;;;;1.84;100.00;95592.63;1110048;26;20347;-71
2024/04/24 01:44:31;;;;;;;17.88;10.80;;;;;;;1.77;100.00;95582.31;1109933;26;20011;-71
2024/04/24 01:45:01;;;;;;;14.25;10.57;;;;;;;1.85;100.00;95586.47;1102942;26;20348;-71
2024/04/24 01:45:32;;;;;;;16.65;9.98;;;;;;;1.86;100.00;95590.63;1095644;27;20079;-71
2024/04/24 01:46:03;;;;;;;18.20;11.00;;;;;;;1.84;100.00;95579.69;1103051;26;20011;-71
2024/04/24 01:46:33;;;;;;;20.35;10.70;;;;;;;1.81;100.00;95588.69;1103078;26;20116;-71
2024/04/24 01:47:04;;;;;;;16.90;10.45;;;;;;;1.78;100.00;95586.50;1095396;26;20374;-71
2024/04/24 01:47:34;;;;;;;17.38;9.63;;;;;;;1.81;100.00;95587.88;1095835;27;20002;-71
2024/04/24 01:48:05;;;;;;;14.73;10.07;;;;;;;1.81;100.00;95582.69;1088884;26;20009;-71
2024/04/24 01:48:35;;;;;;;15.65;10.50;;;;;;;1.80;100.00;95586.28;1111669;26;19997;-71
2024/04/24 01:49:06;;;;;;;17.73;11.32;;;;;;;1.80;100.00;95588.88;1117353;26;20008;-71
2024/04/24 01:49:36;;;;;;;17.50;10.73;;;;;;;1.80;100.00;95591.47;1117510;26;20003;-71
2024/04/24 01:50:07;;;;;;;16.15;10.48;;;;;;;1.81;100.00;95586.09;1116545;26;20133;-71
2024/04/24 01:50:37;;;;;;;16.95;9.90;;;;;;;1.83;100.00;95591.03;1109253;26;20000;-71
2024/04/24 01:51:08;;;;;;;20.08;10.70;;;;;;;1.79;100.00;95589.88;1095699;26;20073;-71
2024/04/24 01:51:38;;;;;;;16.15;10.02;;;;;;;1.79;100.00;95585.50;1081955;27;20081;-71
2024/04/24 01:52:08;;;;;;;16.80;10.18;;;;;;;1.83;100.00;95588.47;1081553;27;19999;-71
2024/04/24 01:52:39;;;;;;;14.45;9.48;;;;;;;1.84;100.00;95595.19;1081898;27;20451;-71
2024/04/24 01:53:09;;;;;;;16.02;9.90;;;;;;;1.85;100.00;95589.84;1095991;26;20008;-70
2024/04/24 01:53:40;;;;;;;17.73;10.73;;;;;;;1.85;100.00;95587.25;1109875;26;20011;-71
2024/04/24 01:54:10;;;;;;;16.60;10.77;;;;;;;1.82;100.00;95581.72;1117738;26;20014;-71
2024/04/24 01:54:41;;;;;;;17.15;9.60;;;;;;;1.80;100.00;95583.69;1117771;26;20093;-71
2024/04/24 01:55:11;;;;;;;16.67;10.48;;;;;;;1.82;100.00;95584.28;1117056;26;19999;-71
2024/04/24 01:55:41;;;;;;;16.02;9.50;;;;;;;1.81;100.00;95583.50;1117124;26;19996;-71
2024/04/24 01:56:12;;;;;;;17.33;10.52;;;;;;;1.83;100.00;95591.03;1110000;26;20031;-70
2024/04/24 01:56:42;;;;;;;17.85;11.50;;;;;;;1.79;100.00;95580.31;1102822;26;20044;-71
2024/04/24 01:57:13;;;;;;;16.63;10.00;;;;;;;1.82;100.00;95590.25;1102528;26;19997;-71
2024/04/24 01:57:43;;;;;;;15.68;10.77;;;;;;;1.86;100.00;95588.03;1102651;26;20001;-71
2024/04/24 01:58:14;;;;;;;14.63;9.43;;;;;;;1.84;100.00;95582.25;1088858;26;19998;-71
2024/04/24 01:58:44;;;;;;;18.65;10.75;;;;;;;1.80;100.00;95581.91;1095752;27;19994;-71
2024/04/24 01:59:15;;;;;;;16.20;10.18;;;;;;;1.82;100.00;95589.47;1095535;26;20084;-71
2024/04/24 01:59:45;;;;;;;14.85;9.80;;;;;;;1.83;100.00;95585.88;1102886;26;20001;-71
2024/04/24 02:00:16;;;;;;;16.75;10.15;;;;;;;1.82;100.00;95590.25;1102088;26;19993;-71
2024/04/24 02:00:46;;;;;;;16.27;10.18;;;;;;;1.80;100.00;95578.53;1096603;26;19994;-71
2024/04/24 02:01:17;;;;;;;17.02;9.23;;;;;;;1.84;100.00;95584.84;1103246;26;20001;-71
2024/04/24 02:01:49;;;;;;;17.55;10.48;;;;;;;1.82;100.00;95584.28;1096320;26;20099;-71
2024/04/24 02:02:19;;;;;;;15.85;10.25;;;;;;;1.81;100.00;95582.69;1097040;26;20013;-71
2024/04/24 02:02:49;;;;;;;15.23;10.40;;;;;;;1.67;100.00;95565.69;1103927;26;20865;-71
2024/04/24 02:03:20;;;;;;;16.80;10.73;;;;;;;1.77;100.00;95589.28;1097198;26;20010;-71
2024/04/24 02:03:53;;;;;;;16.60;11.00;;;;;;;1.78;100.00;95589.09;1110760;26;20000;-71
2024/04/24 02:04:24;;;;;;;20.23;10.50;;;;;;;1.80;100.00;95581.13;1110642;26;20215;-71
2024/04/24 02:04:54;;;;;;;17.73;11.10;;;;;;;1.81;100.00;95582.69;1104063;26;20001;-71
2024/04/24 02:05:24;;;;;;;17.60;10.65;;;;;;;1.81;100.00;95577.50;1110700;26;20114;-71
2024/04/24 02:05:55;;;;;;;16.67;11.00;;;;;;;1.75;100.00;95571.41;1103591;26;19997;-71
2024/04/24 02:06:25;;;;;;;17.98;10.93;;;;;;;1.79;100.00;95585.50;1096160;27;20017;-71
2024/04/24 02:06:56;;;;;;;14.88;10.07;;;;;;;1.80;100.00;95584.50;1096374;26;20010;-71
2024/04/24 02:07:26;;;;;;;18.13;10.82;;;;;;;1.78;100.00;95577.97;1103553;26;20016;-71
2024/04/24 02:07:57;;;;;;;17.75;10.70;;;;;;;1.79;100.00;95579.53;1103324;26;20095;-72
2024/04/24 02:08:27;;;;;;;19.15;10.57;;;;;;;1.78;100.00;95580.56;1110836;26;20434;-71
2024/04/24 02:08:57;;;;;;;20.85;11.30;;;;;;;1.78;100.00;95577.97;1103504;26;20090;-70
2024/04/24 02:09:28;;;;;;;15.90;10.88;;;;;;;1.76;100.00;95578.16;1103339;26;19993;-71
2024/04/24 02:09:58;;;;;;;20.77;11.38;;;;;;;1.73;100.00;95575.19;1096198;27;19998;-71
2024/04/24 02:10:29;;;;;;;19.00;11.60;;;;;;;1.77;100.00;95581.53;1088594;26;19999;-71
2024/04/24 02:10:59;;;;;;;15.82;10.07;;;;;;;1.73;100.00;95576.00;1103694;26;20001;-71
2024/04/24 02:11:31;;;;;;;16.95;9.98;;;;;;;1.78;100.00;95577.97;1103248;26;20397;-71
2024/04/24 02:12:02;;;;;;;19.88;10.45;;;;;;;1.77;100.00;95576.34;1110557;26;20070;-71
2024/04/24 02:12:32;;;;;;;18.23;11.50;;;;;;;1.72;100.00;95578.81;1103576;26;20263;-71
2024/04/24 02:13:03;;;;;;;17.90;10.57;;;;;;;1.69;100.00;95576.63;1103846;26;20441;-71
2024/04/24 02:13:33;;;;;;;16.58;10.75;;;;;;;1.76;100.00;95580.75;1103678;26;20476;-71
2024/04/24 02:14:04;;;;;;;18.23;10.82;;;;;;;1.75;100.00;95583.56;1103435;26;19997;-71
2024/04/24 02:14:34;;;;;;;19.58;10.73;;;;;;;1.73;100.00;95578.56;1103407;26;20333;-72
2024/04/24 02:15:05;;;;;;;19.05;11.07;;;;;;;1.77;100.00;95584.13;1110919;26;20078;-71
2024/04/24 02:15:36;;;;;;;17.58;10.40;;;;;;;1.77;100.00;95581.53;1118480;26;20351;-71
2024/04/24 02:16:06;;;;;;;18.48;10.73;;;;;;;1.75;100.00;95584.34;1125420;26;20424;-71
2024/04/24 02:16:36;;;;;;;19.67;11.05;;;;;;;1.78;100.00;95578.75;1117854;26;20097;-71
2024/04/24 02:17:07;;;;;;;17.90;11.45;;;;;;;1.72;100.00;95579.59;1103502;26;20478;-71
2024/04/24 02:17:37;;;;;;;15.95;10.43;;;;;;;1.73;100.00;95572.63;1096246;27;20016;-71
2024/04/24 02:18:08;;;;;;;14.52;10.60;;;;;;;1.77;100.00;95582.31;1092849;26;20002;-71
2024/04/24 02:18:38;;;;;;;15.48;9.75;;;;;;;1.80;100.00;95584.50;1089268;26;20002;-71
2024/04/24 02:19:09;;;;;;;17.02;11.35;;;;;;;1.80;100.00;95583.69;1096635;27;20442;-71
2024/04/24 02:19:41;;;;;;;18.00;10.73;;;;;;;1.69;100.00;95569.66;1095887;27;20471;-71
2024/04/24 02:20:11;;;;;;;17.42;11.10;;;;;;;1.72;100.00;95576.22;1096324;26;20071;-72
2024/04/24 02:20:42;;;;;;;16.67;10.45;;;;;;;1.73;100.00;95577.78;1103976;26;20271;-72
2024/04/24 02:21:12;;;;;;;16.50;10.52;;;;;;;1.67;100.00;95570.88;1110692;26;20007;-71
2024/04/24 02:21:42;;;;;;;17.88;12.13;;;;;;;1.72;100.00;95576.22;1103328;26;20020;-71
2024/04/24 02:22:13;;;;;;;17.83;11.20;;;;;;;1.73;100.00;95578.56;1102729;26;19997;-71
2024/04/24 02:22:43;;;;;;;17.15;11.23;;;;;;;1.71;100.00;95577.19;1109736;26;20004;-71
2024/04/24 02:23:20;;;;;;;18.70;11.88;;;;;;;1.72;100.00;95583.97;1103359;26;20067;-70
2024/04/24 02:23:50;;;;;;;17.83;10.98;;;;;;;1.71;100.00;95582.38;1102459;26;20001;-70
2024/04/24 02:26:04;;;;;;;21.75;10.55;;;;;;;1.70;100.00;95578.22;1105179;26;20295;-71